Time;durP1;ratioP1;P1;durP2;ratioP2;P2;SDS_P1;SDS_P2;PMS_P1;PMS_P2;Temp;Humidity;BMP_temperature;BMP_pressure;BME280_temperature;BME280_humidity;BME280_pressure;Samples;Min_cycle;Max_cycle;Signal;HPM_P1;HPM_P2
2023/08/18 00:01:30;;;;;;;12.00;10.00;;;;;;;19.05;77.79;100132.11;218330;1256;140146;-67
2023/08/18 00:06:34;;;;;;;15.00;11.80;;;;;;;18.96;78.04;100130.34;218357;1257;140050;-66
2023/08/18 00:11:38;;;;;;;12.20;9.90;;;;;;;18.95;78.23;100115.81;219574;1257;140865;-67
2023/08/18 00:16:43;;;;;;;12.70;11.50;;;;;;;18.88;78.17;100125.81;220491;1257;139705;-67
2023/08/18 00:21:47;;;;;;;12.30;11.10;;;;;;;18.85;78.53;100132.36;219323;1256;142522;-66
2023/08/18 00:26:51;;;;;;;14.10;12.20;;;;;;;18.81;78.72;100149.02;219743;1256;141150;-66
2023/08/18 00:31:56;;;;;;;15.30;13.20;;;;;;;18.77;79.26;100149.20;219961;1256;140457;-67
2023/08/18 00:37:02;;;;;;;12.80;11.50;;;;;;;18.84;79.74;100141.98;220523;1256;140467;-67
2023/08/18 00:42:07;;;;;;;13.00;11.80;;;;;;;18.88;79.97;100131.54;219367;1256;141064;-66
2023/08/18 00:47:12;;;;;;;13.70;12.40;;;;;;;18.99;80.22;100124.05;218562;1258;140300;-68
2023/08/18 00:52:18;;;;;;;18.10;12.50;;;;;;;19.10;80.50;100121.54;218617;1258;140214;-66
2023/08/18 00:57:22;;;;;;;13.80;12.50;;;;;;;19.16;80.59;100107.34;218105;1260;140154;-66
2023/08/18 01:02:28;;;;;;;14.50;12.70;;;;;;;19.22;80.63;100099.95;218261;1256;141669;-67
2023/08/18 01:07:33;;;;;;;12.80;11.50;;;;;;;19.26;80.81;100112.17;218763;1256;140131;-70
2023/08/18 01:12:41;;;;;;;12.80;11.70;;;;;;;19.28;80.80;100125.89;218390;1260;140843;-69
2023/08/18 01:18:00;;;;;;;12.30;11.10;;;;;;;19.32;80.96;100128.34;218042;1256;140444;-69
2023/08/18 01:23:06;;;;;;;14.20;12.90;;;;;;;19.39;80.95;100124.77;218696;1257;140585;-66
2023/08/18 01:28:11;;;;;;;12.60;11.30;;;;;;;19.45;80.96;100125.97;218791;1256;142139;-69
2023/08/18 01:33:30;;;;;;;14.30;11.00;;;;;;;19.48;80.96;100126.65;219046;1255;152658;-67
2023/08/18 01:38:37;;;;;;;10.90;9.80;;;;;;;19.50;81.07;100124.87;218652;1256;140085;-67
2023/08/18 01:43:43;;;;;;;11.20;10.20;;;;;;;19.52;81.12;100119.23;219000;1256;141289;-67
2023/08/18 01:48:47;;;;;;;12.30;10.80;;;;;;;19.51;81.32;100122.00;218298;1256;140221;-67
2023/08/18 01:53:52;;;;;;;12.70;11.50;;;;;;;19.53;81.44;100127.94;219722;1257;140096;-67
2023/08/18 01:58:57;;;;;;;11.90;10.70;;;;;;;19.55;81.34;100129.28;218320;1257;140055;-66
2023/08/18 02:04:02;;;;;;;10.10;9.10;;;;;;;19.55;81.52;100133.23;219577;1257;140961;-66
2023/08/18 02:09:07;;;;;;;11.30;10.30;;;;;;;19.52;81.54;100133.47;220397;1256;140165;-67
2023/08/18 02:14:11;;;;;;;11.00;9.90;;;;;;;19.51;81.73;100128.88;220299;1257;141773;-67
2023/08/18 02:19:14;;;;;;;11.80;10.60;;;;;;;19.54;81.76;100129.93;220496;1256;140218;-68
2023/08/18 02:24:17;;;;;;;10.30;9.00;;;;;;;19.59;81.65;100118.56;220657;1255;140506;-69
2023/08/18 02:29:22;;;;;;;15.10;10.20;;;;;;;19.61;81.63;100116.32;220685;1255;141344;-70
2023/08/18 02:34:27;;;;;;;10.10;9.10;;;;;;;19.65;81.70;100118.19;219743;1255;141384;-69
2023/08/18 02:39:32;;;;;;;10.20;9.20;;;;;;;19.69;81.73;100119.83;219770;1256;140018;-69
2023/08/18 02:44:37;;;;;;;10.30;9.30;;;;;;;19.63;81.68;100144.54;218344;1256;141068;-69
2023/08/18 02:49:42;;;;;;;14.70;11.30;;;;;;;19.55;81.91;100148.09;218825;1257;140293;-68
2023/08/18 02:54:46;;;;;;;12.90;9.20;;;;;;;19.49;82.17;100158.66;219184;1256;140737;-68
2023/08/18 02:59:52;;;;;;;9.50;8.50;;;;;;;19.47;82.66;100158.30;217849;1257;140057;-67
2023/08/18 03:04:56;;;;;;;8.50;7.50;;;;;;;19.48;82.82;100150.12;219063;1256;140704;-68
2023/08/18 03:10:01;;;;;;;8.40;7.60;;;;;;;19.51;83.11;100144.39;218703;1256;140416;-68
2023/08/18 03:15:06;;;;;;;8.30;7.60;;;;;;;19.52;83.07;100149.08;218239;1258;140124;-68
2023/08/18 03:20:10;;;;;;;9.40;7.70;;;;;;;19.49;83.09;100156.94;218410;1256;139899;-68
2023/08/18 03:25:15;;;;;;;8.30;7.50;;;;;;;19.46;83.13;100153.11;218100;1257;140543;-66
2023/08/18 03:30:18;;;;;;;7.20;6.20;;;;;;;19.45;83.12;100148.96;219402;1256;140071;-68
2023/08/18 03:35:22;;;;;;;7.30;6.60;;;;;;;19.42;83.07;100145.08;217912;1256;140321;-67
2023/08/18 03:40:26;;;;;;;8.30;6.60;;;;;;;19.40;83.01;100140.83;219411;1256;141151;-67
2023/08/18 03:45:33;;;;;;;7.20;6.30;;;;;;;19.37;83.06;100134.30;218891;1256;141298;-67
2023/08/18 03:50:39;;;;;;;8.30;7.20;;;;;;;19.37;83.13;100131.66;219857;1257;140107;-69
2023/08/18 03:55:49;;;;;;;9.00;7.30;;;;;;;19.36;83.00;100125.44;218521;1257;140100;-67
2023/08/18 04:01:03;;;;;;;6.80;6.10;;;;;;;19.34;83.16;100127.14;220516;1256;140392;-67
2023/08/18 04:06:09;;;;;;;7.10;6.10;;;;;;;19.33;83.06;100132.87;220601;1256;140940;-68
2023/08/18 04:11:14;;;;;;;8.30;5.70;;;;;;;19.39;83.13;100134.89;220581;1256;142102;-70
2023/08/18 04:16:18;;;;;;;8.20;6.20;;;;;;;19.48;83.22;100135.97;220502;1256;140948;-69
2023/08/18 04:21:22;;;;;;;6.20;5.10;;;;;;;19.60;83.15;100134.18;220425;1256;141079;-69
2023/08/18 04:26:28;;;;;;;6.90;5.90;;;;;;;19.71;82.96;100127.98;219578;1256;140969;-69
2023/08/18 04:31:34;;;;;;;6.10;5.50;;;;;;;19.82;82.82;100119.38;218594;1256;140861;-66
2023/08/18 04:36:37;;;;;;;9.80;6.40;;;;;;;19.93;82.82;100118.54;219491;1256;140860;-69
2023/08/18 04:41:42;;;;;;;6.70;6.10;;;;;;;20.04;82.49;100112.80;219254;1256;141088;-67
2023/08/18 04:46:46;;;;;;;6.80;6.10;;;;;;;20.14;82.29;100116.11;218283;1256;140379;-68
2023/08/18 04:51:51;;;;;;;8.00;5.10;;;;;;;20.24;82.34;100122.73;217978;1258;140357;-68
2023/08/18 04:56:59;;;;;;;9.70;5.10;;;;;;;20.32;82.09;100132.77;219145;1256;141556;-68
2023/08/18 05:02:04;;;;;;;5.60;5.10;;;;;;;20.46;82.03;100137.13;218271;1257;139731;-68
2023/08/18 05:07:08;;;;;;;4.90;4.60;;;;;;;20.61;81.66;100144.79;219089;1255;140306;-68
2023/08/18 05:12:13;;;;;;;5.90;5.40;;;;;;;20.74;81.30;100142.93;218115;1257;140102;-70
2023/08/18 05:17:19;;;;;;;5.80;5.40;;;;;;;20.86;81.15;100134.73;219036;1259;143222;-69
2023/08/18 05:22:24;;;;;;;5.70;5.30;;;;;;;20.97;80.78;100135.02;218475;1256;140304;-69
2023/08/18 05:27:29;;;;;;;6.20;5.70;;;;;;;21.06;80.64;100135.16;218380;1256;139893;-69
2023/08/18 05:32:35;;;;;;;5.80;5.30;;;;;;;21.12;80.42;100139.12;219575;1256;140153;-69
2023/08/18 05:37:40;;;;;;;6.30;5.70;;;;;;;21.20;80.30;100143.63;219619;1256;140505;-68
2023/08/18 05:42:45;;;;;;;8.40;5.80;;;;;;;21.37;80.29;100145.31;218625;1256;140440;-68
2023/08/18 05:47:50;;;;;;;6.00;4.50;;;;;;;21.68;79.80;100142.35;218967;1256;140192;-68
2023/08/18 05:52:54;;;;;;;5.10;4.60;;;;;;;22.06;78.91;100136.23;220063;1256;139221;-67
2023/08/18 05:58:01;;;;;;;6.30;5.70;;;;;;;22.34;78.51;100140.14;219035;1257;139797;-67
2023/08/18 06:03:05;;;;;;;5.60;5.10;;;;;;;22.50;77.89;100150.14;220547;1256;141246;-68
2023/08/18 06:08:13;;;;;;;6.20;5.70;;;;;;;22.54;77.14;100149.85;220196;1256;140927;-66
2023/08/18 06:13:17;;;;;;;19.00;9.00;;;;;;;22.63;76.87;100144.21;220077;1256;140092;-65
2023/08/18 06:18:22;;;;;;;7.90;7.20;;;;;;;23.02;76.70;100141.85;219959;1256;140155;-67
2023/08/18 06:23:26;;;;;;;7.40;6.80;;;;;;;23.33;75.98;100146.33;219004;1257;141262;-67
2023/08/18 06:28:31;;;;;;;8.60;7.70;;;;;;;23.41;75.17;100143.79;219930;1256;140209;-66
2023/08/18 06:33:36;;;;;;;10.40;9.30;;;;;;;23.46;74.70;100133.73;218254;1256;140885;-66
2023/08/18 06:38:40;;;;;;;10.30;7.30;;;;;;;23.73;74.69;100129.87;219896;1256;141219;-67
2023/08/18 06:43:45;;;;;;;8.00;7.30;;;;;;;24.13;73.51;100128.70;217918;1257;140003;-71
2023/08/18 06:48:49;;;;;;;8.50;7.60;;;;;;;24.67;73.04;100120.71;218224;1256;140712;-69
2023/08/18 06:53:54;;;;;;;8.40;7.10;;;;;;;25.21;71.81;100119.14;218965;1256;140234;-68
2023/08/18 06:58:59;;;;;;;7.70;7.00;;;;;;;25.41;70.63;100117.83;217946;1256;139854;-67
2023/08/18 07:04:05;;;;;;;8.70;7.90;;;;;;;25.63;69.97;100122.95;217787;1257;140135;-68
2023/08/18 07:09:11;;;;;;;7.10;6.60;;;;;;;25.59;69.22;100125.95;217745;1257;139722;-70
2023/08/18 07:14:16;;;;;;;7.20;6.50;;;;;;;25.90;68.98;100133.59;218546;1256;140079;-67
2023/08/18 07:19:21;;;;;;;6.60;6.00;;;;;;;25.98;68.10;100129.09;217952;1256;140488;-67
2023/08/18 07:24:25;;;;;;;6.80;5.60;;;;;;;26.12;67.92;100127.92;219054;1256;139754;-68
2023/08/18 07:29:34;;;;;;;10.90;4.80;;;;;;;26.48;67.50;100127.50;217820;1257;140081;-68
2023/08/18 07:34:39;;;;;;;5.80;5.30;;;;;;;26.76;66.86;100137.83;218256;1257;225096;-68
2023/08/18 07:39:44;;;;;;;8.50;5.70;;;;;;;27.15;66.76;100148.76;218077;1257;141802;-69
2023/08/18 07:44:50;;;;;;;5.00;4.70;;;;;;;27.00;65.63;100152.79;218383;1259;140005;-68
2023/08/18 07:49:54;;;;;;;6.40;5.70;;;;;;;26.66;65.02;100148.22;219593;1257;139768;-70
2023/08/18 07:54:58;;;;;;;11.70;6.40;;;;;;;26.19;64.60;100154.29;218924;1256;140584;-68
2023/08/18 08:00:14;;;;;;;5.60;5.10;;;;;;;25.79;64.67;100163.02;218303;1256;140017;-69
2023/08/18 08:05:20;;;;;;;6.80;6.20;;;;;;;25.39;65.48;100171.22;218989;1257;140725;-68
2023/08/18 08:10:34;;;;;;;6.60;6.00;;;;;;;24.79;66.05;100196.14;218210;1256;139764;-68
2023/08/18 08:15:45;;;;;;;;;;;;;;;24.21;67.16;100201.97;219482;1256;140453;-69
2023/08/18 08:20:51;;;;;;;13.50;8.10;;;;;;;23.84;68.33;100216.49;218467;1259;126933;-69
2023/08/18 08:25:55;;;;;;;11.70;8.90;;;;;;;23.49;69.40;100240.86;218523;1257;140155;-68
2023/08/18 08:30:59;;;;;;;15.10;9.30;;;;;;;22.97;70.47;100248.69;218404;1257;140746;-68
2023/08/18 08:36:08;;;;;;;9.30;6.80;;;;;;;22.31;71.19;100221.69;218272;1256;142419;-68
2023/08/18 08:41:13;;;;;;;8.70;6.80;;;;;;;22.03;72.34;100211.87;218534;1256;139521;-67
2023/08/18 08:46:18;;;;;;;9.40;7.90;;;;;;;21.85;73.17;100240.99;218131;1256;140868;-69
2023/08/18 08:51:48;;;;;;;13.30;7.30;;;;;;;21.75;73.94;100255.33;218704;1256;140451;-69
2023/08/18 08:56:55;;;;;;;10.00;8.70;;;;;;;21.56;74.69;100243.86;218470;1259;141162;-68
2023/08/18 09:02:00;;;;;;;11.00;8.40;;;;;;;21.42;75.43;100228.77;218932;1257;140508;-67
2023/08/18 09:07:07;;;;;;;17.30;9.70;;;;;;;21.34;76.17;100220.71;219283;1257;140367;-68
2023/08/18 09:12:11;;;;;;;12.10;9.30;;;;;;;21.31;76.80;100231.71;218017;1258;140367;-69
2023/08/18 09:17:22;;;;;;;13.00;9.20;;;;;;;21.21;77.44;100225.61;218416;1258;139854;-66
2023/08/18 09:22:58;;;;;;;9.70;8.90;;;;;;;21.17;77.99;100210.61;219997;1256;141289;-68
2023/08/18 09:28:07;;;;;;;9.50;7.70;;;;;;;21.22;78.45;100210.25;219204;1256;140794;-68
2023/08/18 09:33:23;;;;;;;9.60;8.30;;;;;;;21.22;78.50;100202.27;220297;1255;140579;-67
2023/08/18 09:38:39;;;;;;;9.40;8.50;;;;;;;21.23;78.91;100195.16;219240;1257;140733;-67
2023/08/18 09:43:44;;;;;;;9.20;8.50;;;;;;;21.28;78.97;100164.67;218148;1256;139558;-66
2023/08/18 09:48:52;;;;;;;12.20;9.50;;;;;;;21.28;79.32;100142.05;218475;1255;140096;-68
2023/08/18 09:54:04;;;;;;;13.40;9.80;;;;;;;21.28;79.73;100157.30;219080;1256;139934;-69
2023/08/18 09:59:29;;;;;;;11.90;9.10;;;;;;;21.21;79.95;100191.98;218609;1257;141248;-68
2023/08/18 10:04:43;;;;;;;9.90;8.90;;;;;;;21.08;80.44;100253.20;218164;1257;140456;-70
2023/08/18 10:09:50;;;;;;;11.80;8.40;;;;;;;20.85;80.99;100218.59;218894;1256;140624;-70
2023/08/18 10:17:46;;;;;;;11.20;9.50;;;;;;;20.76;81.32;100192.05;214271;1296;682549;-67
2023/08/18 10:22:49;;;;;;;11.70;10.00;;;;;;;20.71;81.83;100198.20;216378;1270;140509;-69
2023/08/18 10:27:52;;;;;;;11.90;10.30;;;;;;;20.68;82.15;100236.58;217389;1257;907998;-69
2023/08/18 10:33:03;;;;;;;12.70;9.20;;;;;;;20.67;82.73;100267.00;217929;1258;140551;-70
2023/08/18 10:38:10;;;;;;;11.50;10.50;;;;;;;20.62;82.90;100289.04;217863;1256;139044;-67
2023/08/18 10:43:15;;;;;;;7.50;6.60;;;;;;;20.40;82.75;100291.09;218289;1258;141051;-68
2023/08/18 10:48:19;;;;;;;15.00;8.70;;;;;;;20.22;82.87;100279.23;219015;1259;142076;-68
2023/08/18 10:53:21;;;;;;;7.70;5.90;;;;;;;20.02;83.27;100252.63;219209;1258;140619;-68
2023/08/18 10:58:25;;;;;;;4.90;3.80;;;;;;;19.91;84.48;100255.85;218432;1254;139671;-68
2023/08/18 11:03:31;;;;;;;6.00;3.90;;;;;;;19.85;83.39;100271.98;218186;1258;139571;-69
2023/08/18 11:08:36;;;;;;;4.00;3.70;;;;;;;19.79;83.21;100268.73;218956;1254;140439;-71
2023/08/18 11:13:40;;;;;;;6.10;3.80;;;;;;;19.73;83.23;100253.19;218240;1258;140090;-69
2023/08/18 11:18:43;;;;;;;4.00;3.60;;;;;;;19.68;83.31;100260.64;219970;1257;140641;-68
2023/08/18 11:23:47;;;;;;;4.70;4.20;;;;;;;19.64;83.39;100237.08;219958;1254;139389;-68
2023/08/18 11:28:55;;;;;;;9.60;4.40;;;;;;;19.65;83.61;100219.83;218078;1260;139781;-68
2023/08/18 11:34:10;;;;;;;4.80;4.30;;;;;;;19.64;83.43;100210.20;219451;1255;139094;-69
2023/08/18 11:39:14;;;;;;;3.60;3.40;;;;;;;19.61;83.32;100204.75;218582;1260;139328;-68
2023/08/18 11:44:20;;;;;;;8.80;4.20;;;;;;;19.55;83.18;100184.31;218113;1259;139007;-67
2023/08/18 11:49:22;;;;;;;3.50;3.20;;;;;;;19.47;83.28;100192.63;217904;1257;140410;-67
2023/08/18 11:54:31;;;;;;;6.00;3.80;;;;;;;19.37;83.30;100199.67;218227;1256;230785;-68
2023/08/18 11:59:35;;;;;;;6.50;4.10;;;;;;;19.31;83.57;100196.63;218085;1260;161339;-68
2023/08/18 12:04:42;;;;;;;3.70;3.40;;;;;;;19.30;83.96;100193.71;218510;1259;139383;-70
2023/08/18 12:09:47;;;;;;;3.40;3.20;;;;;;;19.28;84.14;100168.48;218287;1256;139711;-69
2023/08/18 12:14:52;;;;;;;10.10;3.70;;;;;;;19.28;84.21;100156.96;218099;1260;139124;-67
2023/08/18 12:19:55;;;;;;;5.70;3.40;;;;;;;19.32;84.44;100143.42;218321;1257;140386;-67
2023/08/18 12:25:05;;;;;;;4.60;3.30;;;;;;;19.37;84.58;100132.26;218230;1260;139623;-68
2023/08/18 12:30:09;;;;;;;4.20;3.80;;;;;;;19.44;84.83;100140.64;218103;1258;139535;-69
2023/08/18 12:35:14;;;;;;;6.00;4.10;;;;;;;19.50;84.64;100157.19;219026;1255;139404;-68
2023/08/18 12:40:17;;;;;;;5.40;4.20;;;;;;;19.51;84.48;100173.38;217946;1260;139128;-68
2023/08/18 12:45:26;;;;;;;6.90;4.70;;;;;;;19.50;84.24;100169.16;218549;1256;139284;-68
2023/08/18 12:50:32;;;;;;;6.00;5.50;;;;;;;19.46;84.23;100180.63;218914;1258;140787;-68
2023/08/18 12:55:36;;;;;;;6.30;5.50;;;;;;;19.44;84.50;100197.30;218522;1254;139924;-68
2023/08/18 13:00:42;;;;;;;;;;;;;;;19.42;84.60;100205.75;218936;1259;139563;-67
2023/08/18 13:12:27;;;;;;;8.20;7.50;;;;;;;19.34;85.24;100193.63;218462;1254;139503;-70
2023/08/18 13:17:35;;;;;;;7.70;7.00;;;;;;;19.37;85.49;100180.42;218707;1255;138984;-67
2023/08/18 13:22:42;;;;;;;9.10;8.30;;;;;;;19.41;85.87;100161.09;218124;1257;139373;-68
2023/08/18 13:27:45;;;;;;;9.50;8.50;;;;;;;19.45;86.18;100161.60;218185;1254;138758;-68
2023/08/18 13:32:52;;;;;;;7.60;6.90;;;;;;;19.48;86.50;100168.88;218297;1255;139321;-69
2023/08/18 13:37:56;;;;;;;8.40;7.60;;;;;;;19.51;86.96;100162.99;218727;1258;139001;-68
2023/08/18 13:43:00;;;;;;;7.40;6.80;;;;;;;19.55;87.11;100175.73;218998;1260;139853;-69
2023/08/18 13:48:04;;;;;;;8.30;7.50;;;;;;;19.60;87.27;100177.89;218511;1254;140824;-69
2023/08/18 13:53:11;;;;;;;9.70;7.70;;;;;;;19.64;87.49;100177.85;218171;1257;140112;-65
2023/08/18 13:58:15;;;;;;;8.60;7.80;;;;;;;19.69;87.76;100169.32;218270;1259;139069;-67
2023/08/18 14:03:21;;;;;;;10.10;9.20;;;;;;;19.73;87.92;100174.16;218105;1257;139992;-65
2023/08/18 14:08:27;;;;;;;10.00;9.10;;;;;;;19.75;87.97;100183.44;218113;1254;139424;-66
2023/08/18 14:13:35;;;;;;;8.60;7.90;;;;;;;19.80;88.10;100191.79;218983;1254;140468;-67
2023/08/18 14:18:55;;;;;;;11.40;8.80;;;;;;;19.82;88.21;100171.10;216837;1260;141056;-69
2023/08/18 14:24:25;;;;;;;9.50;8.50;;;;;;;19.87;88.38;100153.20;217001;1260;139705;-70
2023/08/18 14:29:47;;;;;;;9.90;8.90;;;;;;;19.90;88.43;100150.23;219602;1264;139570;-66
2023/08/18 14:35:03;;;;;;;9.60;8.70;;;;;;;19.94;88.49;100146.57;218213;1263;139779;-66
2023/08/18 14:40:12;;;;;;;11.40;9.80;;;;;;;19.98;88.62;100135.22;217253;1267;143654;-65
2023/08/18 14:45:34;;;;;;;10.70;9.70;;;;;;;20.04;88.65;100133.20;219245;1264;140902;-66
2023/08/18 14:50:58;;;;;;;10.80;9.80;;;;;;;20.09;88.66;100131.05;217723;1263;223191;-66
2023/08/18 14:56:03;;;;;;;11.10;10.10;;;;;;;20.10;88.73;100132.17;217498;1263;140160;-66
2023/08/18 15:01:34;;;;;;;13.60;11.10;;;;;;;20.12;88.84;100137.23;216537;1266;140433;-66
2023/08/18 15:06:57;;;;;;;14.10;11.10;;;;;;;20.15;89.01;100140.02;216665;1263;223897;-67
2023/08/18 15:12:20;;;;;;;12.50;10.40;;;;;;;20.18;89.04;100131.48;216879;1264;141018;-68
2023/08/18 15:17:57;;;;;;;12.20;11.00;;;;;;;20.22;89.13;100126.94;216997;1263;140080;-68
2023/08/18 15:23:28;;;;;;;12.20;11.00;;;;;;;20.25;89.19;100128.02;216336;1260;140203;-67
2023/08/18 15:28:50;;;;;;;11.10;10.10;;;;;;;20.29;89.39;100112.56;217458;1260;210889;-67
2023/08/18 15:34:11;;;;;;;12.70;10.80;;;;;;;20.32;89.34;100108.95;217493;1260;139916;-67
2023/08/18 15:39:32;;;;;;;13.00;11.80;;;;;;;20.35;89.41;100101.71;216965;1263;140243;-67
2023/08/18 15:44:52;;;;;;;15.20;9.90;;;;;;;20.36;89.46;100094.38;217668;1262;140375;-68
2023/08/18 15:50:15;;;;;;;12.10;10.90;;;;;;;20.39;89.52;100087.63;217782;1260;140935;-66
2023/08/18 15:55:44;;;;;;;10.90;9.90;;;;;;;20.38;89.25;100084.26;218536;1260;140838;-67
2023/08/18 16:01:06;;;;;;;9.50;8.60;;;;;;;20.38;89.09;100075.05;216980;1260;224918;-65
2023/08/18 16:06:09;;;;;;;9.60;8.10;;;;;;;20.38;88.90;100068.40;220049;1254;140854;-65
2023/08/18 16:11:14;;;;;;;9.20;8.30;;;;;;;20.40;88.91;100064.05;220894;1254;140534;-66
2023/08/18 16:16:18;;;;;;;9.80;8.80;;;;;;;20.41;88.68;100060.55;220971;1254;140506;-66
2023/08/18 16:21:22;;;;;;;9.00;8.20;;;;;;;20.45;88.75;100056.98;220935;1254;139798;-68
2023/08/18 16:26:29;;;;;;;10.30;8.30;;;;;;;20.49;88.63;100055.99;220154;1254;140687;-67
2023/08/18 16:31:33;;;;;;;10.40;9.40;;;;;;;20.57;88.72;100052.80;219983;1254;152879;-67
2023/08/18 16:36:37;;;;;;;9.00;8.00;;;;;;;20.64;88.73;100055.27;218490;1254;139919;-67
2023/08/18 16:41:42;;;;;;;9.60;8.70;;;;;;;20.66;88.58;100052.19;218622;1254;140000;-66
2023/08/18 16:46:47;;;;;;;;;;;;;;;20.73;88.77;100050.64;219419;1254;139711;-67
2023/08/18 16:51:54;;;;;;;13.50;9.70;;;;;;;20.74;89.08;100052.07;218296;1254;126357;-66
2023/08/18 16:56:58;;;;;;;10.80;9.80;;;;;;;20.80;89.08;100056.25;218137;1254;141375;-66
2023/08/18 17:02:02;;;;;;;10.40;9.00;;;;;;;20.81;88.95;100057.74;218324;1254;232119;-66
2023/08/18 17:07:08;;;;;;;11.00;10.10;;;;;;;20.80;89.01;100050.45;218139;1259;140016;-66
2023/08/18 17:12:12;;;;;;;11.40;10.20;;;;;;;20.78;89.01;100043.17;217939;1260;141050;-66
2023/08/18 17:17:19;;;;;;;11.60;10.20;;;;;;;20.75;88.86;100048.16;217934;1258;139865;-67
2023/08/18 17:22:24;;;;;;;11.00;9.90;;;;;;;20.69;88.81;100052.52;217997;1259;140146;-70
2023/08/18 17:27:33;;;;;;;;;;;;;;;20.62;88.52;100057.50;218579;1256;140299;-66
2023/08/18 17:32:43;;;;;;;9.50;8.70;;;;;;;20.51;88.71;100061.60;218151;1254;126853;-66
2023/08/18 17:37:49;;;;;;;9.60;8.80;;;;;;;20.40;88.48;100069.66;218619;1254;140616;-67
2023/08/18 17:42:53;;;;;;;9.70;8.90;;;;;;;20.30;88.65;100070.70;218297;1258;139457;-67
2023/08/18 17:47:57;;;;;;;10.70;9.80;;;;;;;20.21;88.63;100081.80;218824;1254;139771;-66
2023/08/18 17:53:03;;;;;;;10.90;9.10;;;;;;;20.11;88.42;100080.02;219829;1256;140217;-66
2023/08/18 17:58:08;;;;;;;11.40;10.30;;;;;;;19.98;88.33;100075.25;218232;1254;139673;-66
2023/08/18 18:03:12;;;;;;;9.00;8.20;;;;;;;19.90;88.29;100080.86;218971;1254;140379;-64
2023/08/18 18:08:20;;;;;;;8.50;6.60;;;;;;;19.82;88.19;100078.31;217946;1254;139551;-68
2023/08/18 18:13:23;;;;;;;;;;;;;;;19.74;88.07;100083.16;219406;1254;139437;-67
2023/08/18 18:18:31;;;;;;;9.20;8.50;;;;;;;19.61;88.14;100097.71;219371;1254;127302;-68
2023/08/18 18:23:49;;;;;;;10.60;9.50;;;;;;;19.55;88.20;100104.23;218519;1254;139907;-67
2023/08/18 18:29:04;;;;;;;10.00;7.80;;;;;;;19.47;88.08;100119.05;218994;1259;140783;-66
2023/08/18 18:34:09;;;;;;;13.00;9.80;;;;;;;19.35;88.04;100127.02;218870;1254;140385;-67
2023/08/18 18:39:16;;;;;;;11.00;10.00;;;;;;;19.26;88.08;100126.18;218212;1254;140017;-67
2023/08/18 18:44:23;;;;;;;11.30;10.20;;;;;;;19.18;88.28;100132.90;218848;1255;140008;-67
2023/08/18 18:49:30;;;;;;;12.00;10.80;;;;;;;19.16;88.52;100142.09;219396;1254;139742;-67
2023/08/18 18:54:39;;;;;;;10.30;9.40;;;;;;;19.12;88.62;100148.39;218487;1254;140242;-67
2023/08/18 18:59:45;;;;;;;11.40;10.30;;;;;;;19.08;88.66;100151.13;218334;1254;143950;-68
2023/08/18 19:04:51;;;;;;;12.10;11.00;;;;;;;18.98;88.67;100159.45;218075;1257;140280;-68
2023/08/18 19:09:58;;;;;;;12.20;11.10;;;;;;;18.92;88.86;100169.55;217903;1256;140193;-66
2023/08/18 19:15:17;;;;;;;13.50;12.30;;;;;;;18.84;89.10;100173.10;218204;1256;140109;-66
2023/08/18 19:20:30;;;;;;;12.60;11.40;;;;;;;18.79;89.04;100147.89;218293;1256;140660;-68
2023/08/18 19:25:35;;;;;;;15.30;11.10;;;;;;;18.73;89.57;100159.54;217486;1260;140163;-68
2023/08/18 19:30:41;;;;;;;11.60;10.40;;;;;;;18.71;89.69;100157.55;218482;1256;140495;-66
2023/08/18 19:35:57;;;;;;;13.20;10.60;;;;;;;18.64;89.80;100150.41;218948;1256;140022;-68
2023/08/18 19:41:08;;;;;;;11.00;9.90;;;;;;;18.64;89.89;100146.27;218695;1256;142392;-67
2023/08/18 19:46:13;;;;;;;17.60;10.20;;;;;;;18.60;89.83;100149.83;218122;1257;140261;-67
2023/08/18 19:51:18;;;;;;;12.80;11.60;;;;;;;18.58;89.79;100144.74;218277;1256;140508;-69
2023/08/18 19:56:23;;;;;;;14.50;12.70;;;;;;;18.57;90.04;100143.40;218728;1259;140341;-67
2023/08/18 20:01:27;;;;;;;11.50;10.50;;;;;;;18.58;90.08;100136.27;218469;1256;140224;-69
2023/08/18 20:06:34;;;;;;;12.60;10.50;;;;;;;18.58;90.18;100125.04;218453;1256;140566;-66
2023/08/18 20:11:38;;;;;;;13.80;12.50;;;;;;;18.57;90.03;100127.09;219287;1256;140483;-69
2023/08/18 20:16:43;;;;;;;13.10;11.80;;;;;;;18.56;89.96;100126.83;219311;1256;139954;-66
2023/08/18 20:21:47;;;;;;;10.70;9.80;;;;;;;18.53;89.94;100121.98;218717;1256;139488;-69
2023/08/18 20:26:50;;;;;;;12.30;11.20;;;;;;;18.45;89.51;100118.02;218210;1257;140987;-71
2023/08/18 20:31:54;;;;;;;15.00;13.40;;;;;;;18.38;89.65;100116.37;218553;1257;139854;-66
2023/08/18 20:36:57;;;;;;;17.10;12.40;;;;;;;18.30;89.58;100113.61;218396;1256;140332;-66
2023/08/18 20:42:03;;;;;;;16.10;14.20;;;;;;;18.21;89.47;100114.61;217904;1259;140766;-66
2023/08/18 20:47:07;;;;;;;18.30;14.60;;;;;;;18.19;89.81;100107.98;217810;1259;140469;-65
2023/08/18 20:52:11;;;;;;;18.70;16.80;;;;;;;18.17;89.85;100112.02;218384;1259;139911;-65
2023/08/18 20:57:15;;;;;;;21.10;17.70;;;;;;;18.14;90.38;100116.63;218962;1256;140480;-67
2023/08/18 21:02:18;;;;;;;19.50;17.30;;;;;;;18.13;90.17;100105.41;218253;1257;141021;-65
2023/08/18 21:07:20;;;;;;;19.40;17.40;;;;;;;18.08;90.32;100102.61;218410;1259;140247;-66
2023/08/18 21:12:23;;;;;;;20.50;16.90;;;;;;;18.08;90.66;100098.35;218316;1256;140894;-66
2023/08/18 21:17:26;;;;;;;18.00;16.10;;;;;;;18.06;90.50;100110.83;217984;1256;140236;-66
2023/08/18 21:22:30;;;;;;;18.70;16.70;;;;;;;18.00;90.55;100110.54;217902;1256;141198;-67
2023/08/18 21:27:34;;;;;;;18.30;16.30;;;;;;;17.98;90.39;100110.65;218174;1257;141170;-69
2023/08/18 21:32:39;;;;;;;20.60;14.60;;;;;;;17.93;90.44;100115.78;217597;1257;141393;-68
2023/08/18 21:37:42;;;;;;;18.10;14.20;;;;;;;17.90;90.45;100118.59;217653;1259;140654;-68
2023/08/18 21:42:44;;;;;;;18.20;15.50;;;;;;;17.83;90.45;100120.70;218167;1256;140666;-66
2023/08/18 21:47:53;;;;;;;16.90;15.20;;;;;;;17.80;90.84;100126.15;218599;1256;140522;-64
2023/08/18 21:52:56;;;;;;;15.40;13.70;;;;;;;17.82;90.86;100128.36;218123;1257;140129;-67
2023/08/18 21:57:59;;;;;;;18.10;14.10;;;;;;;17.82;90.88;100132.89;218570;1256;139820;-66
2023/08/18 22:03:03;;;;;;;15.20;13.50;;;;;;;17.82;91.04;100134.40;218794;1257;141194;-65
2023/08/18 22:08:06;;;;;;;15.00;12.40;;;;;;;17.81;91.05;100128.31;219815;1256;140771;-65
2023/08/18 22:13:10;;;;;;;19.60;14.60;;;;;;;17.78;90.76;100128.69;217768;1259;140851;-65
2023/08/18 22:18:14;;;;;;;17.90;14.70;;;;;;;17.75;90.88;100129.45;218390;1257;141073;-66
2023/08/18 22:23:17;;;;;;;15.40;14.00;;;;;;;17.74;91.09;100129.19;218214;1257;140542;-67
2023/08/18 22:28:20;;;;;;;14.00;12.60;;;;;;;17.73;91.09;100127.41;218707;1257;283978;-65
2023/08/18 22:33:22;;;;;;;17.50;15.70;;;;;;;17.73;91.13;100128.65;218126;1257;140794;-67
2023/08/18 22:38:27;;;;;;;15.80;14.20;;;;;;;17.72;91.20;100132.50;217816;1258;139934;-68
2023/08/18 22:43:33;;;;;;;14.30;12.70;;;;;;;17.71;91.35;100133.15;217904;1257;140065;-71
2023/08/18 22:48:36;;;;;;;14.50;13.00;;;;;;;17.69;91.18;100124.58;218944;1259;141004;-67
2023/08/18 22:53:39;;;;;;;15.80;14.20;;;;;;;17.62;90.75;100118.09;217920;1259;141216;-68
2023/08/18 22:58:46;;;;;;;13.70;12.50;;;;;;;17.58;90.97;100119.27;218058;1259;141211;-66
2023/08/18 23:03:50;;;;;;;11.50;10.30;;;;;;;17.57;91.10;100119.05;217849;1255;140964;-66
2023/08/18 23:08:54;;;;;;;14.30;12.90;;;;;;;17.56;91.18;100111.61;217671;1256;140168;-67
2023/08/18 23:13:58;;;;;;;13.50;12.30;;;;;;;17.56;91.27;100109.45;217706;1255;140720;-68